Time;durP1;ratioP1;P1;durP2;ratioP2;P2;SDS_P1;SDS_P2;PMS_P1;PMS_P2;Temp;Humidity;BMP_temperature;BMP_pressure;BME280_temperature;BME280_humidity;BME280_pressure;Samples;Min_cycle;Max_cycle;Signal;HPM_P1;HPM_P2
2022/12/31 00:04:21;;;;;;;82.82;67.40;;;;;;;-0.53;100.00;102158.13;5078650;27;20393;-79
2022/12/31 00:06:48;;;;;;;83.25;66.88;;;;;;;-0.58;100.00;102165.41;5038368;28;20060;-79
2022/12/31 00:09:15;;;;;;;81.38;64.32;;;;;;;-0.65;100.00;102165.91;5041633;28;20056;-79
2022/12/31 00:11:42;;;;;;;74.40;63.28;;;;;;;-0.64;100.00;102163.19;5048119;28;20049;-79
2022/12/31 00:14:08;;;;;;;73.65;64.05;;;;;;;-0.63;100.00;102171.88;5045466;28;20291;-79
2022/12/31 00:16:39;;;;;;;75.35;65.47;;;;;;;-0.74;100.00;102165.56;5043747;28;20045;-81
2022/12/31 00:19:08;;;;;;;72.72;61.78;;;;;;;-0.68;100.00;102173.94;5043642;28;20045;-81
2022/12/31 00:21:37;;;;;;;74.15;62.90;;;;;;;-0.68;100.00;102180.00;5040209;28;20046;-80
2022/12/31 00:24:06;;;;;;;75.85;61.15;;;;;;;-0.84;100.00;102176.69;5039855;28;20045;-79
2022/12/31 00:26:34;;;;;;;80.25;60.83;;;;;;;-0.67;100.00;102181.66;5037923;28;20045;-80
2022/12/31 00:29:02;;;;;;;75.95;61.42;;;;;;;-0.82;100.00;102182.63;5043160;28;20085;-79
2022/12/31 00:31:30;;;;;;;69.65;62.13;;;;;;;-0.75;100.00;102189.16;5042065;28;20054;-80
2022/12/31 00:33:58;;;;;;;75.03;65.00;;;;;;;-0.92;100.00;102185.81;5042831;28;20535;-79
2022/12/31 00:36:28;;;;;;;71.05;60.05;;;;;;;-0.89;100.00;102178.72;5037460;28;20045;-81
2022/12/31 00:38:57;;;;;;;73.65;62.08;;;;;;;-0.83;100.00;102173.97;5032165;28;20554;-79
2022/12/31 00:41:26;;;;;;;79.63;67.05;;;;;;;-0.93;100.00;102181.53;5046054;28;20049;-79
2022/12/31 00:43:53;;;;;;;130.57;98.18;;;;;;;-0.98;100.00;102174.91;5042281;28;20075;-79
2022/12/31 00:46:20;;;;;;;120.20;86.45;;;;;;;-0.98;100.00;102175.75;5044986;28;20057;-81
2022/12/31 00:48:48;;;;;;;112.10;82.60;;;;;;;-0.87;100.00;102185.53;5039088;28;20444;-81
2022/12/31 00:51:16;;;;;;;140.55;94.88;;;;;;;-0.88;100.00;102185.63;5037981;28;20052;-79
2022/12/31 00:53:44;;;;;;;139.35;95.00;;;;;;;-0.76;100.00;102188.28;5049086;28;20087;-83
2022/12/31 00:56:14;;;;;;;107.10;80.75;;;;;;;-0.64;100.00;102189.28;5047217;28;20397;-79
2022/12/31 00:58:42;;;;;;;93.65;72.30;;;;;;;-0.44;100.00;102188.03;5040981;28;20097;-79
2022/12/31 01:01:10;;;;;;;81.95;68.75;;;;;;;-0.05;100.00;102189.84;5035061;23;20129;-91
2022/12/31 01:03:39;;;;;;;70.32;62.55;;;;;;;0.15;100.00;102195.50;5001054;28;20112;-90
2022/12/31 01:06:10;;;;;;;76.00;61.67;;;;;;;0.36;100.00;102201.91;4997215;28;20046;-91
2022/12/31 01:08:37;;;;;;;69.18;61.67;;;;;;;0.47;100.00;102189.91;4991930;28;20050;-90
2022/12/31 01:13:46;;;;;;;70.13;62.72;;;;;;;0.01;100.00;102206.06;5087217;27;20393;-79
2022/12/31 01:16:14;;;;;;;67.32;60.13;;;;;;;-0.02;100.00;102197.47;5076094;28;20110;-79
2022/12/31 01:18:41;;;;;;;63.92;57.20;;;;;;;-0.07;100.00;102206.53;5082844;28;20048;-79
2022/12/31 01:21:10;;;;;;;63.42;56.85;;;;;;;-0.18;100.00;102196.81;5074630;28;20064;-80
2022/12/31 01:23:39;;;;;;;97.70;78.28;;;;;;;-0.51;100.00;102184.97;5069851;28;20049;-80
2022/12/31 01:26:08;;;;;;;94.07;77.40;;;;;;;-0.80;100.00;102196.41;5076599;28;20041;-81
2022/12/31 01:28:36;;;;;;;69.80;62.80;;;;;;;-0.53;100.00;102201.69;5078413;28;20060;-80
2022/12/31 01:31:06;;;;;;;63.33;56.33;;;;;;;-0.60;100.00;102201.22;5078423;28;20133;-82
2022/12/31 01:33:33;;;;;;;72.35;64.70;;;;;;;-0.57;100.00;102197.59;5074647;28;20118;-79
2022/12/31 01:36:04;;;;;;;70.28;62.92;;;;;;;-0.54;100.00;102198.22;5074770;28;20106;-81
2022/12/31 01:38:31;;;;;;;69.30;61.75;;;;;;;-0.55;100.00;102196.53;5069584;28;20110;-79
2022/12/31 01:40:58;;;;;;;71.32;63.55;;;;;;;-0.76;100.00;102196.13;5075172;28;20052;-79
2022/12/31 01:43:39;;;;;;;71.40;63.83;;;;;;;-0.64;100.00;102193.69;5070690;28;20103;-79
2022/12/31 01:46:08;;;;;;;70.00;62.67;;;;;;;-0.74;100.00;102198.66;5069530;28;20056;-80
2022/12/31 01:48:35;;;;;;;69.65;62.17;;;;;;;-1.02;100.00;102181.28;5073718;28;20045;-80
2022/12/31 01:51:01;;;;;;;64.95;57.95;;;;;;;-1.17;100.00;102191.69;5078133;28;20053;-82
2022/12/31 01:53:29;;;;;;;65.03;58.08;;;;;;;-1.23;100.00;102199.91;5070073;28;20421;-79
2022/12/31 01:55:59;;;;;;;66.90;60.28;;;;;;;-0.97;100.00;102200.06;5077960;28;20049;-79
2022/12/31 01:58:29;;;;;;;61.55;55.30;;;;;;;-0.95;100.00;102204.25;5070476;28;20121;-79
2022/12/31 02:00:58;;;;;;;59.70;54.08;;;;;;;-0.90;100.00;102203.97;5079203;28;20543;-80
2022/12/31 02:03:27;;;;;;;61.45;55.28;;;;;;;-0.99;100.00;102200.16;5070095;28;20049;-81
2022/12/31 02:06:01;;;;;;;59.00;53.45;;;;;;;-0.98;100.00;102201.84;5068921;28;20117;-80
2022/12/31 02:08:28;;;;;;;61.97;56.17;;;;;;;-0.94;100.00;102195.50;5072323;28;20471;-79
2022/12/31 02:10:54;;;;;;;60.03;54.40;;;;;;;-0.97;100.00;102207.88;5072535;28;20107;-79
2022/12/31 02:13:21;;;;;;;59.83;54.03;;;;;;;-1.02;100.00;102196.91;5078586;28;20048;-79
2022/12/31 02:15:57;;;;;;;58.60;52.80;;;;;;;-0.99;100.00;102208.00;5077757;28;20526;-80
2022/12/31 02:18:32;;;;;;;58.17;52.65;;;;;;;-1.06;100.00;102206.72;5072955;28;20060;-80
2022/12/31 02:21:34;;;;;;;56.42;50.92;;;;;;;-1.10;100.00;102199.97;5072991;28;20053;-79
2022/12/31 02:24:41;;;;;;;51.72;46.60;;;;;;;-1.07;100.00;102204.19;5055447;28;20049;-83
2022/12/31 02:27:12;;;;;;;61.53;55.45;;;;;;;-1.18;100.00;102220.47;5035163;28;20056;-79
2022/12/31 02:30:07;;;;;;;63.53;57.05;;;;;;;-1.24;100.00;102215.63;5058994;28;20550;-79
2022/12/31 02:33:08;;;;;;;64.95;58.50;;;;;;;-1.32;100.00;102210.06;5059898;28;20055;-80
2022/12/31 02:35:43;;;;;;;70.00;61.85;;;;;;;-1.23;100.00;102215.53;5021725;28;20079;-79
2022/12/31 02:38:15;;;;;;;81.80;71.20;;;;;;;-1.34;100.00;102206.69;5057642;28;20053;-79
2022/12/31 02:40:44;;;;;;;93.35;78.38;;;;;;;-1.33;100.00;102208.34;5060438;28;20451;-79
2022/12/31 02:43:11;;;;;;;142.93;106.82;;;;;;;-1.29;100.00;102215.06;5064986;28;20049;-79
2022/12/31 02:45:42;;;;;;;122.25;92.15;;;;;;;-1.16;100.00;102211.63;5059186;28;20049;-79
2022/12/31 02:48:32;;;;;;;109.82;90.55;;;;;;;-1.18;100.00;102212.63;5058799;28;20052;-80
2022/12/31 02:51:08;;;;;;;105.68;87.47;;;;;;;-1.38;100.00;102208.63;5064190;28;20501;-79
2022/12/31 02:53:50;;;;;;;99.60;82.07;;;;;;;-1.29;100.00;102215.91;5054969;28;20041;-81
2022/12/31 02:56:23;;;;;;;108.90;84.35;;;;;;;-1.18;100.00;102228.28;5063411;28;20561;-81
2022/12/31 03:04:35;;;;;;;62.97;55.92;;;;;;;-1.08;100.00;102239.84;5061841;28;20098;-80
2022/12/31 03:07:04;;;;;;;62.85;56.50;;;;;;;-1.32;100.00;102246.53;5060256;28;20522;-80
2022/12/31 03:09:31;;;;;;;64.00;57.65;;;;;;;-1.03;100.00;102256.06;5051851;28;20060;-79
2022/12/31 03:14:43;;;;;;;62.33;56.00;;;;;;;-1.01;100.00;102248.13;5055582;28;20071;-79
2022/12/31 03:17:12;;;;;;;61.03;54.83;;;;;;;-1.08;100.00;102244.22;5053216;28;20065;-80
2022/12/31 03:22:28;;;;;;;63.03;57.05;;;;;;;-1.04;100.00;102243.09;5063941;28;20498;-79
2022/12/31 03:27:40;;;;;;;63.40;56.90;;;;;;;-1.23;100.00;102246.81;5047281;28;19932;-81
2022/12/31 03:30:08;;;;;;;61.97;55.78;;;;;;;-1.08;100.00;102252.06;5061496;28;20052;-80
2022/12/31 03:32:36;;;;;;;62.15;55.65;;;;;;;-1.00;100.00;102239.38;5056348;28;20057;-80
2022/12/31 03:35:03;;;;;;;60.83;55.30;;;;;;;-1.10;100.00;102248.69;5047204;28;20055;-79
2022/12/31 03:37:30;;;;;;;64.75;58.05;;;;;;;-1.17;100.00;102248.22;5064758;28;20459;-79
2022/12/31 03:39:57;;;;;;;60.53;54.65;;;;;;;-0.97;100.00;102244.41;5052924;28;20475;-79
2022/12/31 03:42:23;;;;;;;58.05;52.55;;;;;;;-0.53;100.00;102246.88;5066117;28;20052;-81
2022/12/31 03:45:33;;;;;;;63.50;57.45;;;;;;;-0.62;100.00;102246.63;4956050;27;20925;-79
2022/12/31 03:47:59;;;;;;;67.05;60.35;;;;;;;-0.74;100.00;102250.81;5034756;28;20107;-79
2022/12/31 03:50:27;;;;;;;61.30;55.28;;;;;;;-0.52;100.00;102250.31;5019631;28;20046;-81
2022/12/31 03:52:53;;;;;;;59.63;53.40;;;;;;;-0.84;100.00;102250.56;5025398;28;20050;-79
2022/12/31 03:55:20;;;;;;;60.97;55.13;;;;;;;-0.39;100.00;102250.38;5027584;28;20057;-80
2022/12/31 03:57:47;;;;;;;64.78;58.50;;;;;;;-0.10;100.00;102251.97;5021898;28;20062;-81
2022/12/31 04:00:17;;;;;;;66.95;60.25;;;;;;;-0.58;100.00;102256.75;5020834;28;20046;-79
2022/12/31 04:02:45;;;;;;;62.83;56.90;;;;;;;-0.58;100.00;102246.31;5017238;28;20129;-80
2022/12/31 04:05:13;;;;;;;63.00;57.22;;;;;;;-0.63;100.00;102251.00;5020733;28;20050;-80
2022/12/31 04:07:40;;;;;;;63.58;57.17;;;;;;;-0.60;100.00;102240.38;5020889;28;20073;-81
2022/12/31 04:10:09;;;;;;;62.65;56.15;;;;;;;-0.56;100.00;102238.41;5022253;28;20120;-81
2022/12/31 04:12:37;;;;;;;62.00;56.20;;;;;;;-0.50;100.00;102258.91;5014171;28;20116;-82
2022/12/31 04:15:04;;;;;;;63.50;57.50;;;;;;;-0.39;100.00;102248.63;5023217;28;20490;-82
2022/12/31 04:17:30;;;;;;;62.22;56.28;;;;;;;-0.63;100.00;102250.19;5018257;28;20065;-79
2022/12/31 04:19:58;;;;;;;59.63;53.65;;;;;;;-0.48;100.00;102255.28;5012839;28;20104;-82
2022/12/31 04:22:25;;;;;;;58.80;53.10;;;;;;;-0.79;100.00;102251.09;5020295;28;20046;-81
2022/12/31 04:24:52;;;;;;;62.88;56.35;;;;;;;-0.56;100.00;102260.13;5026469;28;20115;-80
2022/12/31 04:27:19;;;;;;;65.07;58.47;;;;;;;-0.31;100.00;102248.97;5016699;28;20108;-79
2022/12/31 04:29:46;;;;;;;60.30;54.15;;;;;;;-0.51;100.00;102247.63;5015049;28;20050;-79
2022/12/31 04:32:12;;;;;;;62.60;55.90;;;;;;;-0.43;100.00;102262.78;5023332;28;20270;-79
2022/12/31 04:34:39;;;;;;;63.15;56.85;;;;;;;-0.34;100.00;102264.81;5026648;28;20045;-79
2022/12/31 04:37:07;;;;;;;64.32;58.00;;;;;;;-0.47;100.00;102270.00;5024904;28;20108;-79
2022/12/31 04:39:34;;;;;;;64.32;58.20;;;;;;;-0.39;100.00;102263.44;5024397;28;20120;-80
2022/12/31 04:42:01;;;;;;;70.65;63.40;;;;;;;-0.11;100.00;102273.00;5018781;28;20209;-80
2022/12/31 04:44:29;;;;;;;68.40;61.78;;;;;;;-0.43;100.00;102269.78;5018423;28;20551;-80
2022/12/31 04:46:55;;;;;;;72.05;64.75;;;;;;;-0.47;100.00;102264.78;5018886;28;20057;-80
2022/12/31 04:49:22;;;;;;;69.50;62.90;;;;;;;-0.38;100.00;102268.56;5024357;28;20541;-79
2022/12/31 04:51:49;;;;;;;72.85;64.95;;;;;;;-0.42;100.00;102276.69;5016675;28;20042;-79
2022/12/31 04:54:17;;;;;;;67.72;61.03;;;;;;;-0.34;100.00;102280.50;5027636;28;20449;-79
2022/12/31 04:56:43;;;;;;;63.92;57.63;;;;;;;-0.46;100.00;102274.25;5014879;28;20050;-80
2022/12/31 04:59:10;;;;;;;64.80;58.58;;;;;;;-0.75;100.00;102276.09;5008299;28;20047;-80
2022/12/31 05:01:38;;;;;;;61.38;55.33;;;;;;;-0.81;100.00;102273.84;5003720;28;20487;-80
2022/12/31 05:04:05;;;;;;;65.30;58.97;;;;;;;-0.73;100.00;102281.19;5008028;28;20529;-79
2022/12/31 05:06:31;;;;;;;62.00;56.25;;;;;;;-0.86;100.00;102278.50;5005882;28;20061;-78
2022/12/31 05:08:58;;;;;;;65.85;59.42;;;;;;;-0.80;100.00;102277.28;5005075;28;20498;-80
2022/12/31 05:11:26;;;;;;;65.05;58.50;;;;;;;-0.80;100.00;102290.34;5007999;28;20525;-80
2022/12/31 05:13:53;;;;;;;66.32;59.63;;;;;;;-0.83;100.00;102288.75;5005991;28;20045;-82
2022/12/31 05:16:20;;;;;;;66.75;60.05;;;;;;;-0.66;100.00;102284.28;5006256;28;20049;-79
2022/12/31 05:18:46;;;;;;;66.80;60.03;;;;;;;-0.77;100.00;102290.16;5002354;28;20054;-79
2022/12/31 05:21:20;;;;;;;63.55;57.20;;;;;;;-0.35;100.00;102291.88;5001676;28;20050;-81
2022/12/31 05:23:47;;;;;;;66.18;59.33;;;;;;;-0.79;100.00;102312.88;5012678;28;20128;-79
2022/12/31 05:26:13;;;;;;;65.53;58.13;;;;;;;-0.53;100.00;102306.91;5006681;28;20115;-80
2022/12/31 05:28:42;;;;;;;63.58;56.83;;;;;;;-0.67;100.00;102308.69;5006866;28;20046;-82
2022/12/31 05:31:08;;;;;;;61.60;55.83;;;;;;;-0.75;100.00;102317.84;5005559;28;20050;-79
2022/12/31 05:33:35;;;;;;;58.38;52.58;;;;;;;-0.71;100.00;102321.94;5006670;28;20438;-80
2022/12/31 05:36:04;;;;;;;58.92;53.40;;;;;;;-1.10;100.00;102322.56;5006583;28;20050;-79
2022/12/31 05:38:30;;;;;;;59.15;53.47;;;;;;;-1.07;100.00;102324.16;5014433;28;20057;-81
2022/12/31 05:41:01;;;;;;;57.95;52.72;;;;;;;-1.11;100.00;102331.31;5002935;28;20046;-82
2022/12/31 05:43:28;;;;;;;58.22;53.00;;;;;;;-1.09;100.00;102329.47;5005212;28;20139;-79
2022/12/31 05:45:56;;;;;;;57.08;51.78;;;;;;;-1.28;100.00;102321.03;5004372;28;20053;-79
2022/12/31 05:48:23;;;;;;;55.10;49.50;;;;;;;-1.17;100.00;102323.84;5006864;28;20135;-80
2022/12/31 05:50:50;;;;;;;55.90;50.30;;;;;;;-1.28;100.00;102328.84;5009650;28;20052;-80
2022/12/31 05:53:17;;;;;;;60.17;54.40;;;;;;;-0.67;100.00;102332.19;5003088;28;20396;-80
2022/12/31 05:55:45;;;;;;;56.80;51.15;;;;;;;-0.96;100.00;102324.34;5012509;28;20490;-80
2022/12/31 05:58:13;;;;;;;58.15;52.80;;;;;;;-1.11;100.00;102328.72;5004543;28;20137;-80
2022/12/31 06:00:41;;;;;;;64.80;57.88;;;;;;;-0.32;100.00;102336.06;5007921;28;20104;-80
2022/12/31 06:03:09;;;;;;;74.18;64.88;;;;;;;-0.43;100.00;102346.34;5006083;28;20521;-81
2022/12/31 06:05:39;;;;;;;73.63;65.80;;;;;;;-0.49;100.00;102347.56;5004562;28;20053;-80
2022/12/31 06:08:06;;;;;;;66.45;59.40;;;;;;;-0.53;100.00;102350.47;5004875;28;20041;-80
2022/12/31 06:10:33;;;;;;;65.00;58.45;;;;;;;-0.63;100.00;102355.41;5004985;28;20046;-80
2022/12/31 06:12:59;;;;;;;64.28;57.97;;;;;;;-0.38;100.00;102359.97;5003983;28;20454;-81
2022/12/31 06:15:26;;;;;;;60.42;54.00;;;;;;;0.02;100.00;102364.47;5000012;28;20053;-81
2022/12/31 06:17:53;;;;;;;61.35;55.30;;;;;;;-0.32;100.00;102370.03;5010775;28;20041;-81
2022/12/31 06:20:21;;;;;;;58.95;53.05;;;;;;;0.17;100.00;102377.41;5005435;28;20049;-80
2022/12/31 06:22:48;;;;;;;59.90;53.78;;;;;;;0.52;100.00;102376.09;5002861;28;20560;-81
2022/12/31 06:25:14;;;;;;;63.00;56.97;;;;;;;0.94;100.00;102374.16;4998026;28;20141;-84
2022/12/31 06:27:41;;;;;;;56.55;51.35;;;;;;;1.10;100.00;102385.31;4996679;28;20458;-80
2022/12/31 06:30:10;;;;;;;57.13;51.65;;;;;;;1.13;100.00;102382.47;5003423;28;20112;-79
2022/12/31 06:32:38;;;;;;;57.75;52.42;;;;;;;1.48;100.00;102385.28;5001883;28;20446;-81
2022/12/31 06:35:06;;;;;;;64.05;57.53;;;;;;;2.16;100.00;102386.63;5001648;28;20140;-79
2022/12/31 06:37:34;;;;;;;84.35;64.85;;;;;;;1.99;100.00;102394.84;5002743;28;20050;-81
2022/12/31 06:40:01;;;;;;;252.20;109.75;;;;;;;2.20;100.00;102398.56;4998910;28;20371;-80
2022/12/31 06:42:29;;;;;;;135.15;78.50;;;;;;;3.02;100.00;102403.94;4996793;28;20173;-79
2022/12/31 06:44:56;;;;;;;76.10;63.72;;;;;;;3.03;100.00;102399.53;5000898;28;20045;-80
2022/12/31 06:47:23;;;;;;;79.93;65.55;;;;;;;3.69;100.00;102403.19;5002056;28;20541;-79
2022/12/31 06:49:49;;;;;;;78.90;69.53;;;;;;;3.62;100.00;102402.81;4996251;28;20112;-79
2022/12/31 06:52:16;;;;;;;60.72;54.83;;;;;;;3.77;100.00;102397.34;5002187;28;20487;-80
2022/12/31 06:54:45;;;;;;;62.30;56.00;;;;;;;4.18;100.00;102395.88;4994727;28;20073;-80
2022/12/31 06:57:12;;;;;;;70.35;62.40;;;;;;;4.66;100.00;102401.56;5001167;28;20042;-79
2022/12/31 06:59:39;;;;;;;86.43;71.97;;;;;;;4.39;100.00;102409.91;4998927;28;20904;-80
2022/12/31 07:02:23;;;;;;;65.55;59.30;;;;;;;4.94;100.00;102405.38;4996555;28;20466;-81
2022/12/31 07:05:12;;;;;;;58.63;53.42;;;;;;;4.93;100.00;102406.34;5003888;28;20123;-79
2022/12/31 07:07:49;;;;;;;58.22;52.90;;;;;;;5.27;100.00;102414.06;5003530;28;20053;-80
2022/12/31 07:10:27;;;;;;;56.08;51.40;;;;;;;5.27;100.00;102399.06;4999713;28;20146;-80
2022/12/31 07:13:17;;;;;;;58.85;54.15;;;;;;;5.72;100.00;102414.56;5002038;28;20046;-81
2022/12/31 07:15:55;;;;;;;59.03;54.40;;;;;;;5.89;100.00;102422.78;5000928;28;20058;-83
2022/12/31 07:18:34;;;;;;;56.60;51.97;;;;;;;6.71;100.00;102434.94;5002791;28;20057;-80
2022/12/31 07:21:01;;;;;;;55.22;51.05;;;;;;;6.86;100.00;102441.47;5002397;28;20042;-80
2022/12/31 07:23:28;;;;;;;56.60;52.13;;;;;;;6.03;100.00;102432.19;4998499;28;20046;-79
2022/12/31 07:26:18;;;;;;;57.92;53.58;;;;;;;7.06;100.00;102429.09;5004231;28;20135;-79
2022/12/31 07:28:57;;;;;;;64.88;58.78;;;;;;;7.11;100.00;102430.34;5001466;28;20457;-81
2022/12/31 07:31:36;;;;;;;62.22;56.40;;;;;;;5.91;100.00;102429.63;5003559;28;20058;-81
2022/12/31 07:34:13;;;;;;;59.05;54.22;;;;;;;7.58;100.00;102432.16;5001459;28;20054;-80
2022/12/31 07:36:55;;;;;;;61.47;56.38;;;;;;;7.83;100.00;102437.78;4999222;28;20489;-79
2022/12/31 07:39:30;;;;;;;60.13;55.10;;;;;;;8.53;100.00;102441.59;5004100;28;20121;-81
2022/12/31 07:42:05;;;;;;;58.63;53.80;;;;;;;8.96;100.00;102442.66;5003991;28;20042;-80
2022/12/31 07:44:44;;;;;;;57.30;52.55;;;;;;;8.85;100.00;102440.25;5001192;28;20493;-80
2022/12/31 07:47:20;;;;;;;62.10;56.28;;;;;;;10.08;100.00;102445.31;5002231;28;20220;-81
2022/12/31 07:49:47;;;;;;;114.65;85.20;;;;;;;9.89;100.00;102450.03;4995401;28;20054;-81
2022/12/31 07:52:15;;;;;;;58.53;53.85;;;;;;;9.84;100.00;102461.13;4998394;28;20108;-81
2022/12/31 07:54:42;;;;;;;65.22;58.88;;;;;;;9.53;100.00;102451.03;4999399;28;20054;-82
2022/12/31 07:57:12;;;;;;;66.97;60.75;;;;;;;9.43;100.00;102454.75;5006835;28;20050;-81
2022/12/31 07:59:51;;;;;;;62.80;57.75;;;;;;;10.80;100.00;102454.63;4998072;28;20062;-81
2022/12/31 08:02:26;;;;;;;58.20;53.78;;;;;;;9.85;100.00;102454.81;5003720;28;20049;-80
2022/12/31 08:05:00;;;;;;;56.22;52.10;;;;;;;10.50;100.00;102447.13;5003406;28;20050;-80
2022/12/31 08:07:36;;;;;;;57.95;53.67;;;;;;;10.56;100.00;102448.31;5010788;28;20053;-80
2022/12/31 08:10:09;;;;;;;55.53;51.25;;;;;;;10.04;100.00;102451.09;5008322;28;20111;-80
2022/12/31 08:12:40;;;;;;;56.35;52.13;;;;;;;10.80;100.00;102449.31;5006375;28;20379;-80
2022/12/31 08:15:13;;;;;;;56.28;52.22;;;;;;;10.69;100.00;102447.81;5004782;28;20050;-81
2022/12/31 08:17:50;;;;;;;56.14;52.04;;;;;;;12.08;100.00;102444.94;4640156;28;10002985;-82
2022/12/31 08:20:18;;;;;;;55.38;51.38;;;;;;;11.68;100.00;102455.53;4997485;28;20057;-83
2022/12/31 08:23:04;;;;;;;53.60;49.92;;;;;;;11.07;100.00;102450.81;4995845;28;20117;-82
2022/12/31 08:25:38;;;;;;;54.88;50.70;;;;;;;11.43;100.00;102449.44;4994117;28;20050;-82
2022/12/31 08:28:14;;;;;;;55.47;51.03;;;;;;;12.12;100.00;102456.91;4999019;28;20069;-79
2022/12/31 08:30:52;;;;;;;55.35;51.17;;;;;;;12.72;100.00;102453.53;4994724;28;20054;-79
2022/12/31 08:33:26;;;;;;;55.45;51.45;;;;;;;12.92;100.00;102445.03;5001644;28;20128;-82
2022/12/31 08:36:06;;;;;;;54.90;50.90;;;;;;;12.61;100.00;102453.94;4999365;28;20045;-81
2022/12/31 08:38:41;;;;;;;58.38;54.17;;;;;;;13.94;100.00;102451.53;5000744;28;20061;-82
2022/12/31 08:41:16;;;;;;;59.33;55.03;;;;;;;14.00;100.00;102446.47;4998716;28;20152;-80
2022/12/31 08:43:53;;;;;;;57.40;53.33;;;;;;;13.98;100.00;102449.34;5003307;28;20131;-81
2022/12/31 08:46:26;;;;;;;57.30;53.45;;;;;;;14.65;100.00;102450.94;5006333;28;20046;-81
2022/12/31 08:48:53;;;;;;;58.45;54.33;;;;;;;14.19;100.00;102453.88;5001419;28;20112;-82
2022/12/31 08:51:23;;;;;;;57.80;53.55;;;;;;;14.55;100.00;102447.72;5000860;28;20112;-82
2022/12/31 08:53:51;;;;;;;56.90;52.78;;;;;;;15.42;100.00;102435.91;5003906;28;20450;-80
2022/12/31 08:56:26;;;;;;;58.92;54.47;;;;;;;15.73;100.00;102439.00;4996211;28;20299;-81
2022/12/31 08:59:07;;;;;;;57.38;53.45;;;;;;;15.34;100.00;102428.88;4998564;28;20052;-80
2022/12/31 09:01:47;;;;;;;63.63;58.38;;;;;;;15.39;100.00;102431.75;5004798;28;20105;-81
2022/12/31 09:04:23;;;;;;;60.30;55.70;;;;;;;16.15;100.00;102431.75;4997662;28;20050;-82
2022/12/31 09:06:55;;;;;;;61.20;56.70;;;;;;;15.50;100.00;102417.00;4999520;28;20115;-81
2022/12/31 09:09:30;;;;;;;61.10;56.80;;;;;;;15.86;100.00;102418.66;4964178;28;20057;-80
2022/12/31 09:12:03;;;;;;;61.97;57.20;;;;;;;16.69;100.00;102416.59;5015276;28;20057;-81
2022/12/31 09:14:43;;;;;;;56.55;52.50;;;;;;;16.75;100.00;102421.13;5019321;28;20050;-81
2022/12/31 09:17:32;;;;;;;56.63;52.63;;;;;;;16.29;100.00;102416.53;5015542;28;20050;-81
2022/12/31 09:19:59;;;;;;;60.55;55.95;;;;;;;16.58;100.00;102411.81;5019088;28;20462;-81
2022/12/31 09:22:26;;;;;;;59.58;55.15;;;;;;;16.99;100.00;102417.03;4998169;28;20529;-80
2022/12/31 09:24:53;;;;;;;60.22;55.75;;;;;;;16.54;99.33;102413.28;5014819;28;20054;-79
2022/12/31 09:27:28;;;;;;;60.15;55.53;;;;;;;16.50;100.00;102404.81;5020148;28;20053;-81
2022/12/31 09:30:02;;;;;;;60.72;56.10;;;;;;;17.47;94.53;102411.41;5017922;28;20045;-81
2022/12/31 09:32:41;;;;;;;59.50;54.80;;;;;;;16.89;100.00;102400.53;5017652;28;20060;-81
2022/12/31 09:35:17;;;;;;;61.15;56.53;;;;;;;17.27;92.65;102397.19;5016584;28;20050;-80
2022/12/31 09:37:47;;;;;;;58.75;54.65;;;;;;;16.16;92.88;102393.22;5013980;28;20065;-79
2022/12/31 09:40:32;;;;;;;56.97;52.92;;;;;;;15.53;100.00;102393.34;5025177;28;20448;-81
2022/12/31 09:43:23;;;;;;;57.05;52.95;;;;;;;15.51;100.00;102397.22;5019693;28;20525;-80
2022/12/31 09:46:15;;;;;;;57.90;53.83;;;;;;;13.49;100.00;102388.50;5022178;28;20100;-80
2022/12/31 09:49:19;;;;;;;58.17;54.00;;;;;;;15.79;100.00;102386.47;5024240;28;20099;-81
2022/12/31 09:51:57;;;;;;;57.35;53.45;;;;;;;17.80;94.88;102386.31;5030078;28;20449;-82
2022/12/31 09:54:37;;;;;;;57.80;53.33;;;;;;;17.42;93.98;102387.03;5025544;28;20490;-81
2022/12/31 09:57:27;;;;;;;57.05;52.90;;;;;;;16.99;91.84;102376.78;5026090;28;20156;-81
2022/12/31 10:00:01;;;;;;;57.47;53.28;;;;;;;15.82;100.00;102380.72;5025738;28;20473;-82
2022/12/31 10:02:46;;;;;;;56.67;52.28;;;;;;;15.67;100.00;102378.19;5026033;28;20045;-82
2022/12/31 10:05:42;;;;;;;56.45;52.25;;;;;;;16.52;100.00;102373.28;5025313;28;20077;-79
2022/12/31 10:08:22;;;;;;;56.35;52.25;;;;;;;16.85;100.00;102361.72;5022559;28;20049;-81
2022/12/31 10:10:56;;;;;;;56.33;52.08;;;;;;;16.50;98.61;102353.88;5018921;28;20045;-84
2022/12/31 10:13:36;;;;;;;59.90;55.40;;;;;;;16.13;100.00;102341.88;5016634;28;20402;-83
2022/12/31 10:16:44;;;;;;;58.80;54.30;;;;;;;16.10;98.08;102353.81;5022530;28;20049;-83
2022/12/31 10:19:45;;;;;;;58.08;53.67;;;;;;;14.44;100.00;102358.97;5007865;28;20119;-81
2022/12/31 10:22:28;;;;;;;57.78;53.58;;;;;;;15.20;100.00;102353.00;5015206;28;20045;-80
2022/12/31 10:25:17;;;;;;;55.65;51.55;;;;;;;16.97;100.00;102348.50;5018428;28;20050;-81
2022/12/31 10:27:53;;;;;;;57.17;52.92;;;;;;;16.63;99.60;102335.06;5016991;28;20115;-81
2022/12/31 10:30:22;;;;;;;56.80;52.60;;;;;;;15.82;96.33;102350.41;5023432;28;20069;-81
2022/12/31 10:33:04;;;;;;;57.20;52.92;;;;;;;15.96;100.00;102342.22;5016890;28;20045;-81
2022/12/31 10:35:42;;;;;;;56.95;52.95;;;;;;;15.21;100.00;102333.22;5019730;28;20107;-82
2022/12/31 10:38:27;;;;;;;58.67;53.97;;;;;;;16.05;100.00;102329.47;5026226;28;20132;-82
2022/12/31 10:41:37;;;;;;;61.42;57.03;;;;;;;15.03;100.00;102327.56;5025692;28;20055;-82
2022/12/31 10:44:47;;;;;;;57.05;52.88;;;;;;;15.42;100.00;102334.16;5026815;28;20045;-82
2022/12/31 10:47:37;;;;;;;57.40;53.00;;;;;;;19.76;88.42;102325.81;4994283;28;20088;-82
2022/12/31 10:50:36;;;;;;;58.33;54.22;;;;;;;17.71;100.00;102340.00;5017535;28;20457;-81
2022/12/31 10:53:26;;;;;;;58.72;54.30;;;;;;;16.56;100.00;102334.25;5019832;28;20053;-82
2022/12/31 10:56:47;;;;;;;58.38;54.17;;;;;;;18.20;97.43;102337.69;5018987;28;20049;-82
2022/12/31 10:59:51;;;;;;;58.92;54.65;;;;;;;15.23;100.00;102341.06;4988276;28;20099;-82
2022/12/31 11:02:47;;;;;;;57.38;53.17;;;;;;;15.18;100.00;102325.59;5009670;28;20052;-82
2022/12/31 11:05:49;;;;;;;57.80;53.65;;;;;;;15.18;100.00;102322.09;5024871;28;20050;-80
2022/12/31 11:08:37;;;;;;;59.20;54.80;;;;;;;13.25;100.00;102322.88;5026342;28;20057;-82
2022/12/31 11:11:28;;;;;;;59.08;54.92;;;;;;;14.26;100.00;102315.84;5026097;28;20464;-80
2022/12/31 11:14:24;;;;;;;61.58;57.13;;;;;;;13.60;100.00;102315.13;5024642;28;20469;-83
2022/12/31 11:17:02;;;;;;;60.38;56.20;;;;;;;14.42;100.00;102309.41;5026865;28;20486;-81
2022/12/31 11:19:37;;;;;;;62.08;57.72;;;;;;;15.78;100.00;102299.91;5018383;28;20123;-81
2022/12/31 11:22:20;;;;;;;61.95;57.30;;;;;;;15.41;94.09;102295.03;5020399;28;20048;-82
2022/12/31 11:25:05;;;;;;;62.92;58.38;;;;;;;14.49;100.00;102304.91;5015442;28;20442;-80
2022/12/31 11:27:48;;;;;;;58.97;54.58;;;;;;;15.47;100.00;102303.09;5023068;28;20057;-79
2022/12/31 11:30:22;;;;;;;59.80;55.67;;;;;;;16.41;100.00;102304.16;5024101;28;20041;-82
2022/12/31 11:33:07;;;;;;;61.58;57.38;;;;;;;16.07;100.00;102307.81;5021755;28;20136;-82
2022/12/31 11:35:49;;;;;;;61.13;56.58;;;;;;;15.17;93.55;102305.22;5013284;28;20610;-81
2022/12/31 11:38:24;;;;;;;59.47;55.17;;;;;;;16.90;98.42;102322.50;5015928;28;20398;-80
2022/12/31 11:41:05;;;;;;;60.85;56.58;;;;;;;16.45;100.00;102313.41;5021456;28;20114;-80
2022/12/31 11:43:37;;;;;;;60.03;55.75;;;;;;;16.32;100.00;102316.09;5018904;28;20124;-80
2022/12/31 11:46:18;;;;;;;61.07;56.87;;;;;;;16.41;100.00;102307.66;5021881;28;20045;-81
2022/12/31 11:48:57;;;;;;;61.28;57.10;;;;;;;16.51;100.00;102307.22;5020933;28;20110;-81
2022/12/31 11:51:47;;;;;;;61.75;57.25;;;;;;;16.98;96.85;102312.59;5021801;28;20045;-81